sensor_id;sensor_type;location;lat;lon;timestamp;temperature;humidity
4673;DHT22;61885;53.560;9.940;2022-10-16T00:00:02;15.20;99.90
4673;DHT22;61885;53.560;9.940;2022-10-16T00:02:32;14.10;99.90
4673;DHT22;61885;53.560;9.940;2022-10-16T00:05:01;14.10;99.90
4673;DHT22;61885;53.560;9.940;2022-10-16T00:07:31;14.10;99.90
4673;DHT22;61885;53.560;9.940;2022-10-16T00:10:03;14.10;99.90
4673;DHT22;61885;53.560;9.940;2022-10-16T00:12:33;14.20;99.90
4673;DHT22;61885;53.560;9.940;2022-10-16T00:15:04;14.10;99.90
4673;DHT22;61885;53.560;9.940;2022-10-16T00:17:33;14.20;99.90
4673;DHT22;61885;53.560;9.940;2022-10-16T00:20:04;14.00;99.90
4673;DHT22;61885;53.560;9.940;2022-10-16T00:22:34;14.20;99.90
4673;DHT22;61885;53.560;9.940;2022-10-16T00:25:07;14.10;99.90
4673;DHT22;61885;53.560;9.940;2022-10-16T00:27:36;14.20;99.90
4673;DHT22;61885;53.560;9.940;2022-10-16T00:30:08;14.10;99.90
4673;DHT22;61885;53.560;9.940;2022-10-16T00:32:38;14.20;99.90
4673;DHT22;61885;53.560;9.940;2022-10-16T00:35:07;14.10;99.90
4673;DHT22;61885;53.560;9.940;2022-10-16T00:37:37;14.20;99.90
4673;DHT22;61885;53.560;9.940;2022-10-16T00:40:10;14.10;99.90
4673;DHT22;61885;53.560;9.940;2022-10-16T00:42:40;14.20;99.90
4673;DHT22;61885;53.560;9.940;2022-10-16T00:45:10;14.00;99.90
4673;DHT22;61885;53.560;9.940;2022-10-16T00:47:43;14.20;99.90
4673;DHT22;61885;53.560;9.940;2022-10-16T00:50:18;14.10;99.90
4673;DHT22;61885;53.560;9.940;2022-10-16T00:52:53;14.10;99.90
4673;DHT22;61885;53.560;9.940;2022-10-16T00:55:26;14.20;99.90
4673;DHT22;61885;53.560;9.940;2022-10-16T00:57:57;14.10;99.90
4673;DHT22;61885;53.560;9.940;2022-10-16T01:00:27;14.10;99.90
4673;DHT22;61885;53.560;9.940;2022-10-16T01:02:59;14.10;99.90
4673;DHT22;61885;53.560;9.940;2022-10-16T01:05:39;14.20;99.90
4673;DHT22;61885;53.560;9.940;2022-10-16T01:08:15;14.20;99.90
4673;DHT22;61885;53.560;9.940;2022-10-16T01:10:52;14.10;99.90
4673;DHT22;61885;53.560;9.940;2022-10-16T01:13:27;14.10;99.90
4673;DHT22;61885;53.560;9.940;2022-10-16T01:16:03;14.10;99.90
4673;DHT22;61885;53.560;9.940;2022-10-16T01:18:39;14.00;99.90
4673;DHT22;61885;53.560;9.940;2022-10-16T01:21:15;14.00;99.90
4673;DHT22;61885;53.560;9.940;2022-10-16T01:23:58;13.90;99.90
4673;DHT22;61885;53.560;9.940;2022-10-16T01:26:42;13.90;99.90
4673;DHT22;61885;53.560;9.940;2022-10-16T01:29:19;13.90;99.90
4673;DHT22;61885;53.560;9.940;2022-10-16T01:31:55;13.80;99.90
4673;DHT22;61885;53.560;9.940;2022-10-16T01:34:32;13.80;99.90
4673;DHT22;61885;53.560;9.940;2022-10-16T01:37:07;13.80;99.90
4673;DHT22;61885;53.560;9.940;2022-10-16T01:39:39;13.70;99.90
4673;DHT22;61885;53.560;9.940;2022-10-16T01:42:20;13.60;99.90
4673;DHT22;61885;53.560;9.940;2022-10-16T01:44:55;13.70;99.90
4673;DHT22;61885;53.560;9.940;2022-10-16T01:47:26;13.60;99.90
4673;DHT22;61885;53.560;9.940;2022-10-16T01:49:58;13.70;99.90
4673;DHT22;61885;53.560;9.940;2022-10-16T01:52:29;13.70;99.90
4673;DHT22;61885;53.560;9.940;2022-10-16T01:55:00;13.80;99.90
4673;DHT22;61885;53.560;9.940;2022-10-16T01:57:32;13.70;99.90
4673;DHT22;61885;53.560;9.940;2022-10-16T02:00:10;13.60;99.90
4673;DHT22;61885;53.560;9.940;2022-10-16T02:02:41;13.70;99.90
4673;DHT22;61885;53.560;9.940;2022-10-16T02:05:15;14.30;99.90
4673;DHT22;61885;53.560;9.940;2022-10-16T02:07:47;13.60;99.90
4673;DHT22;61885;53.560;9.940;2022-10-16T02:10:17;13.60;99.90
4673;DHT22;61885;53.560;9.940;2022-10-16T02:12:50;13.90;99.90
4673;DHT22;61885;53.560;9.940;2022-10-16T02:15:26;13.60;99.90
4673;DHT22;61885;53.560;9.940;2022-10-16T02:17:56;13.60;99.90
4673;DHT22;61885;53.560;9.940;2022-10-16T02:20:27;13.50;99.90
4673;DHT22;61885;53.560;9.940;2022-10-16T02:22:58;13.50;99.90
4673;DHT22;61885;53.560;9.940;2022-10-16T02:25:31;13.50;99.90
4673;DHT22;61885;53.560;9.940;2022-10-16T02:28:04;13.50;99.90
4673;DHT22;61885;53.560;9.940;2022-10-16T02:30:41;13.40;99.90
4673;DHT22;61885;53.560;9.940;2022-10-16T02:33:14;13.40;99.90
4673;DHT22;61885;53.560;9.940;2022-10-16T02:35:46;13.40;99.90
4673;DHT22;61885;53.560;9.940;2022-10-16T02:38:17;13.40;99.90
4673;DHT22;61885;53.560;9.940;2022-10-16T02:40:48;13.40;99.90
4673;DHT22;61885;53.560;9.940;2022-10-16T02:43:17;13.30;99.90
4673;DHT22;61885;53.560;9.940;2022-10-16T02:45:50;13.40;99.90
4673;DHT22;61885;53.560;9.940;2022-10-16T02:48:20;13.30;99.90
4673;DHT22;61885;53.560;9.940;2022-10-16T02:50:49;13.30;99.90
4673;DHT22;61885;53.560;9.940;2022-10-16T02:53:19;13.40;99.90
4673;DHT22;61885;53.560;9.940;2022-10-16T02:55:48;13.30;99.90
4673;DHT22;61885;53.560;9.940;2022-10-16T02:58:18;13.30;99.90
4673;DHT22;61885;53.560;9.940;2022-10-16T03:00:50;13.30;99.90
4673;DHT22;61885;53.560;9.940;2022-10-16T03:03:20;13.30;99.90
4673;DHT22;61885;53.560;9.940;2022-10-16T03:05:50;13.20;99.90
4673;DHT22;61885;53.560;9.940;2022-10-16T03:08:20;13.20;99.90
4673;DHT22;61885;53.560;9.940;2022-10-16T03:10:52;13.10;99.90
4673;DHT22;61885;53.560;9.940;2022-10-16T03:13:21;13.10;99.90
4673;DHT22;61885;53.560;9.940;2022-10-16T03:15:53;13.10;99.90
4673;DHT22;61885;53.560;9.940;2022-10-16T03:18:23;13.10;99.90
4673;DHT22;61885;53.560;9.940;2022-10-16T03:20:52;13.10;99.90
4673;DHT22;61885;53.560;9.940;2022-10-16T03:23:22;13.10;99.90
4673;DHT22;61885;53.560;9.940;2022-10-16T03:25:51;13.20;99.90
4673;DHT22;61885;53.560;9.940;2022-10-16T03:28:21;13.10;99.90
4673;DHT22;61885;53.560;9.940;2022-10-16T03:30:53;13.10;99.90
4673;DHT22;61885;53.560;9.940;2022-10-16T03:33:23;13.10;99.90
4673;DHT22;61885;53.560;9.940;2022-10-16T03:35:52;13.10;99.90
4673;DHT22;61885;53.560;9.940;2022-10-16T03:38:22;13.30;99.90
4673;DHT22;61885;53.560;9.940;2022-10-16T03:40:52;13.10;99.90
4673;DHT22;61885;53.560;9.940;2022-10-16T03:43:21;13.10;99.90
4673;DHT22;61885;53.560;9.940;2022-10-16T03:45:53;13.00;99.90
4673;DHT22;61885;53.560;9.940;2022-10-16T03:48:23;13.00;99.90
4673;DHT22;61885;53.560;9.940;2022-10-16T03:50:53;13.00;99.90
4673;DHT22;61885;53.560;9.940;2022-10-16T03:53:22;13.10;99.90
4673;DHT22;61885;53.560;9.940;2022-10-16T03:55:52;13.00;99.90
4673;DHT22;61885;53.560;9.940;2022-10-16T03:58:21;13.00;99.90
4673;DHT22;61885;53.560;9.940;2022-10-16T04:00:54;13.10;99.90
4673;DHT22;61885;53.560;9.940;2022-10-16T04:03:24;13.00;99.90
4673;DHT22;61885;53.560;9.940;2022-10-16T04:05:53;13.00;99.90
4673;DHT22;61885;53.560;9.940;2022-10-16T04:08:23;13.10;99.90
4673;DHT22;61885;53.560;9.940;2022-10-16T04:10:53;13.00;99.90
4673;DHT22;61885;53.560;9.940;2022-10-16T04:13:22;13.00;99.90
4673;DHT22;61885;53.560;9.940;2022-10-16T04:15:54;13.00;99.90
4673;DHT22;61885;53.560;9.940;2022-10-16T04:18:24;13.00;99.90
4673;DHT22;61885;53.560;9.940;2022-10-16T04:20:54;13.00;99.90
4673;DHT22;61885;53.560;9.940;2022-10-16T04:23:24;12.90;99.90
4673;DHT22;61885;53.560;9.940;2022-10-16T04:25:53;13.00;99.90
4673;DHT22;61885;53.560;9.940;2022-10-16T04:28:23;13.00;99.90
4673;DHT22;61885;53.560;9.940;2022-10-16T04:30:55;13.00;99.90
4673;DHT22;61885;53.560;9.940;2022-10-16T04:33:25;13.90;99.90
4673;DHT22;61885;53.560;9.940;2022-10-16T04:35:58;13.00;99.90
4673;DHT22;61885;53.560;9.940;2022-10-16T04:38:28;13.10;99.90
4673;DHT22;61885;53.560;9.940;2022-10-16T04:40:57;13.20;99.90
4673;DHT22;61885;53.560;9.940;2022-10-16T04:43:27;13.00;99.90
4673;DHT22;61885;53.560;9.940;2022-10-16T04:45:59;13.00;99.90
4673;DHT22;61885;53.560;9.940;2022-10-16T04:48:31;13.00;99.90
4673;DHT22;61885;53.560;9.940;2022-10-16T04:51:00;13.00;99.90
4673;DHT22;61885;53.560;9.940;2022-10-16T04:53:30;13.00;99.90
4673;DHT22;61885;53.560;9.940;2022-10-16T04:55:59;13.00;99.90
4673;DHT22;61885;53.560;9.940;2022-10-16T04:58:29;12.90;99.90
4673;DHT22;61885;53.560;9.940;2022-10-16T05:01:02;12.90;99.90
4673;DHT22;61885;53.560;9.940;2022-10-16T05:03:31;13.00;99.90
4673;DHT22;61885;53.560;9.940;2022-10-16T05:06:01;13.00;99.90
4673;DHT22;61885;53.560;9.940;2022-10-16T05:08:30;12.90;99.90
4673;DHT22;61885;53.560;9.940;2022-10-16T05:11:00;12.90;99.90
4673;DHT22;61885;53.560;9.940;2022-10-16T05:13:30;13.00;99.90
4673;DHT22;61885;53.560;9.940;2022-10-16T05:16:02;12.90;99.90
4673;DHT22;61885;53.560;9.940;2022-10-16T05:18:31;13.10;99.90
4673;DHT22;61885;53.560;9.940;2022-10-16T05:21:01;14.00;99.90
4673;DHT22;61885;53.560;9.940;2022-10-16T05:23:31;13.00;99.90
4673;DHT22;61885;53.560;9.940;2022-10-16T05:26:00;13.00;99.90
4673;DHT22;61885;53.560;9.940;2022-10-16T05:28:30;13.00;99.90
4673;DHT22;61885;53.560;9.940;2022-10-16T05:31:06;13.00;99.90
4673;DHT22;61885;53.560;9.940;2022-10-16T05:33:36;13.00;99.90
4673;DHT22;61885;53.560;9.940;2022-10-16T05:36:08;13.00;99.90
4673;DHT22;61885;53.560;9.940;2022-10-16T05:38:37;13.20;99.90
4673;DHT22;61885;53.560;9.940;2022-10-16T05:41:07;13.10;99.90
4673;DHT22;61885;53.560;9.940;2022-10-16T05:43:37;13.10;99.90
4673;DHT22;61885;53.560;9.940;2022-10-16T05:46:09;13.00;99.90
4673;DHT22;61885;53.560;9.940;2022-10-16T05:48:38;13.00;99.90
4673;DHT22;61885;53.560;9.940;2022-10-16T05:51:10;13.20;99.90
4673;DHT22;61885;53.560;9.940;2022-10-16T05:53:41;13.10;99.90
4673;DHT22;61885;53.560;9.940;2022-10-16T05:56:11;13.10;99.90
4673;DHT22;61885;53.560;9.940;2022-10-16T05:58:42;13.20;99.90
4673;DHT22;61885;53.560;9.940;2022-10-16T06:01:16;13.20;99.90
4673;DHT22;61885;53.560;9.940;2022-10-16T06:03:45;13.30;99.90
4673;DHT22;61885;53.560;9.940;2022-10-16T06:06:17;13.40;99.90
4673;DHT22;61885;53.560;9.940;2022-10-16T06:08:48;13.40;99.90
4673;DHT22;61885;53.560;9.940;2022-10-16T06:11:19;13.50;99.90
4673;DHT22;61885;53.560;9.940;2022-10-16T06:13:49;13.40;99.90
4673;DHT22;61885;53.560;9.940;2022-10-16T06:16:22;13.40;99.90
4673;DHT22;61885;53.560;9.940;2022-10-16T06:18:53;13.50;99.90
4673;DHT22;61885;53.560;9.940;2022-10-16T06:21:25;13.40;99.90
4673;DHT22;61885;53.560;9.940;2022-10-16T06:23:56;13.40;99.90
4673;DHT22;61885;53.560;9.940;2022-10-16T06:26:27;13.40;99.90
4673;DHT22;61885;53.560;9.940;2022-10-16T06:28:58;13.40;99.90
4673;DHT22;61885;53.560;9.940;2022-10-16T06:31:31;13.40;99.90
4673;DHT22;61885;53.560;9.940;2022-10-16T06:34:01;13.40;99.90
4673;DHT22;61885;53.560;9.940;2022-10-16T06:36:32;13.40;99.90
4673;DHT22;61885;53.560;9.940;2022-10-16T06:39:02;13.40;99.90
4673;DHT22;61885;53.560;9.940;2022-10-16T06:41:34;13.50;99.90
4673;DHT22;61885;53.560;9.940;2022-10-16T06:44:05;13.40;99.90
4673;DHT22;61885;53.560;9.940;2022-10-16T06:46:38;13.50;99.90
4673;DHT22;61885;53.560;9.940;2022-10-16T06:49:07;13.40;99.90
4673;DHT22;61885;53.560;9.940;2022-10-16T06:51:37;13.30;99.90
4673;DHT22;61885;53.560;9.940;2022-10-16T06:54:07;13.30;99.90
4673;DHT22;61885;53.560;9.940;2022-10-16T06:56:37;13.40;99.90
4673;DHT22;61885;53.560;9.940;2022-10-16T06:59:06;13.50;99.90
4673;DHT22;61885;53.560;9.940;2022-10-16T07:01:38;13.50;99.90
4673;DHT22;61885;53.560;9.940;2022-10-16T07:04:08;13.60;99.90
4673;DHT22;61885;53.560;9.940;2022-10-16T07:06:38;13.70;99.90
4673;DHT22;61885;53.560;9.940;2022-10-16T07:09:10;13.90;99.90
4673;DHT22;61885;53.560;9.940;2022-10-16T07:11:40;13.90;99.90
4673;DHT22;61885;53.560;9.940;2022-10-16T07:14:15;13.90;99.90
4673;DHT22;61885;53.560;9.940;2022-10-16T07:16:48;14.00;99.90
4673;DHT22;61885;53.560;9.940;2022-10-16T07:19:17;15.20;99.90
4673;DHT22;61885;53.560;9.940;2022-10-16T07:21:47;14.10;99.90
4673;DHT22;61885;53.560;9.940;2022-10-16T07:24:17;14.10;99.90
4673;DHT22;61885;53.560;9.940;2022-10-16T07:26:46;14.00;99.90
4673;DHT22;61885;53.560;9.940;2022-10-16T07:29:26;14.10;99.90
4673;DHT22;61885;53.560;9.940;2022-10-16T07:31:58;14.00;99.90
4673;DHT22;61885;53.560;9.940;2022-10-16T07:34:28;14.00;99.90
4673;DHT22;61885;53.560;9.940;2022-10-16T07:36:57;14.00;99.90
4673;DHT22;61885;53.560;9.940;2022-10-16T07:39:27;14.10;99.90
4673;DHT22;61885;53.560;9.940;2022-10-16T07:41:56;14.20;99.90
4673;DHT22;61885;53.560;9.940;2022-10-16T07:44:26;14.10;99.90
4673;DHT22;61885;53.560;9.940;2022-10-16T07:46:58;14.20;99.90
4673;DHT22;61885;53.560;9.940;2022-10-16T07:49:28;14.20;99.90
4673;DHT22;61885;53.560;9.940;2022-10-16T07:51:57;14.30;99.90
4673;DHT22;61885;53.560;9.940;2022-10-16T07:54:27;14.30;99.90
4673;DHT22;61885;53.560;9.940;2022-10-16T07:56:56;14.30;99.90
4673;DHT22;61885;53.560;9.940;2022-10-16T07:59:26;14.30;99.90
4673;DHT22;61885;53.560;9.940;2022-10-16T08:01:58;14.30;99.90
4673;DHT22;61885;53.560;9.940;2022-10-16T08:04:28;14.30;99.90
4673;DHT22;61885;53.560;9.940;2022-10-16T08:06:57;14.30;99.90
4673;DHT22;61885;53.560;9.940;2022-10-16T08:09:27;14.20;99.90
4673;DHT22;61885;53.560;9.940;2022-10-16T08:11:56;14.20;99.90
4673;DHT22;61885;53.560;9.940;2022-10-16T08:14:26;14.20;99.90
4673;DHT22;61885;53.560;9.940;2022-10-16T08:16:58;14.20;99.90
4673;DHT22;61885;53.560;9.940;2022-10-16T08:19:28;14.20;99.90
4673;DHT22;61885;53.560;9.940;2022-10-16T08:22:00;14.20;99.90
4673;DHT22;61885;53.560;9.940;2022-10-16T08:24:30;14.10;99.90
4673;DHT22;61885;53.560;9.940;2022-10-16T08:27:01;14.30;99.90
4673;DHT22;61885;53.560;9.940;2022-10-16T08:29:31;14.30;99.90
4673;DHT22;61885;53.560;9.940;2022-10-16T08:32:03;14.40;99.90
4673;DHT22;61885;53.560;9.940;2022-10-16T08:34:33;14.50;99.90
4673;DHT22;61885;53.560;9.940;2022-10-16T08:37:03;14.80;99.90
4673;DHT22;61885;53.560;9.940;2022-10-16T08:39:34;14.70;99.90
4673;DHT22;61885;53.560;9.940;2022-10-16T08:42:24;14.60;99.90
4673;DHT22;61885;53.560;9.940;2022-10-16T08:45:15;14.60;99.90
4673;DHT22;61885;53.560;9.940;2022-10-16T08:48:00;14.60;99.90
4673;DHT22;61885;53.560;9.940;2022-10-16T08:50:38;14.60;99.90
4673;DHT22;61885;53.560;9.940;2022-10-16T08:53:15;14.70;99.90
4673;DHT22;61885;53.560;9.940;2022-10-16T08:55:48;14.70;99.90
4673;DHT22;61885;53.560;9.940;2022-10-16T08:58:20;14.70;99.90
4673;DHT22;61885;53.560;9.940;2022-10-16T09:00:53;14.70;99.90
4673;DHT22;61885;53.560;9.940;2022-10-16T09:03:39;14.90;99.90
4673;DHT22;61885;53.560;9.940;2022-10-16T09:06:27;15.00;99.90
4673;DHT22;61885;53.560;9.940;2022-10-16T09:09:11;15.00;99.90
4673;DHT22;61885;53.560;9.940;2022-10-16T09:11:49;15.10;99.90
4673;DHT22;61885;53.560;9.940;2022-10-16T09:14:50;15.10;99.90
4673;DHT22;61885;53.560;9.940;2022-10-16T09:17:30;15.30;99.90
4673;DHT22;61885;53.560;9.940;2022-10-16T09:20:18;15.30;99.90
4673;DHT22;61885;53.560;9.940;2022-10-16T09:22:49;15.30;99.90
4673;DHT22;61885;53.560;9.940;2022-10-16T09:25:21;15.40;99.90
4673;DHT22;61885;53.560;9.940;2022-10-16T09:27:53;15.50;99.90
4673;DHT22;61885;53.560;9.940;2022-10-16T09:30:23;15.60;99.90
4673;DHT22;61885;53.560;9.940;2022-10-16T09:32:57;15.70;99.90
4673;DHT22;61885;53.560;9.940;2022-10-16T09:35:32;15.70;99.90
4673;DHT22;61885;53.560;9.940;2022-10-16T09:38:02;15.80;99.90
4673;DHT22;61885;53.560;9.940;2022-10-16T09:40:35;15.80;99.90
4673;DHT22;61885;53.560;9.940;2022-10-16T09:43:19;15.80;99.90
4673;DHT22;61885;53.560;9.940;2022-10-16T09:46:01;16.00;99.90
4673;DHT22;61885;53.560;9.940;2022-10-16T09:48:36;15.80;99.90
4673;DHT22;61885;53.560;9.940;2022-10-16T09:51:17;15.90;99.90
4673;DHT22;61885;53.560;9.940;2022-10-16T09:53:48;15.90;99.90
4673;DHT22;61885;53.560;9.940;2022-10-16T09:56:22;15.80;99.90
4673;DHT22;61885;53.560;9.940;2022-10-16T09:58:54;15.90;99.90
4673;DHT22;61885;53.560;9.940;2022-10-16T10:01:29;16.10;99.90
4673;DHT22;61885;53.560;9.940;2022-10-16T10:03:58;16.00;99.90
4673;DHT22;61885;53.560;9.940;2022-10-16T10:06:34;16.60;99.90
4673;DHT22;61885;53.560;9.940;2022-10-16T10:09:06;16.00;99.90
4673;DHT22;61885;53.560;9.940;2022-10-16T10:11:48;16.20;99.90
4673;DHT22;61885;53.560;9.940;2022-10-16T10:14:23;17.60;99.90
4673;DHT22;61885;53.560;9.940;2022-10-16T10:19:49;16.10;99.90
4673;DHT22;61885;53.560;9.940;2022-10-16T10:22:31;16.20;99.90
4673;DHT22;61885;53.560;9.940;2022-10-16T10:25:18;16.20;99.90
4673;DHT22;61885;53.560;9.940;2022-10-16T10:28:15;16.20;99.90
4673;DHT22;61885;53.560;9.940;2022-10-16T10:30:53;16.30;99.90
4673;DHT22;61885;53.560;9.940;2022-10-16T10:33:30;16.20;99.90
4673;DHT22;61885;53.560;9.940;2022-10-16T10:36:08;16.30;99.90
4673;DHT22;61885;53.560;9.940;2022-10-16T10:38:49;16.40;99.50
4673;DHT22;61885;53.560;9.940;2022-10-16T10:41:57;16.40;99.70
4673;DHT22;61885;53.560;9.940;2022-10-16T10:47:40;16.80;84.90
4673;DHT22;61885;53.560;9.940;2022-10-16T10:50:22;16.70;79.50
4673;DHT22;61885;53.560;9.940;2022-10-16T10:52:59;17.00;77.30
4673;DHT22;61885;53.560;9.940;2022-10-16T10:55:39;16.70;79.10
4673;DHT22;61885;53.560;9.940;2022-10-16T10:58:28;16.70;73.60
4673;DHT22;61885;53.560;9.940;2022-10-16T11:01:08;16.80;74.40
4673;DHT22;61885;53.560;9.940;2022-10-16T11:03:55;16.80;72.80
4673;DHT22;61885;53.560;9.940;2022-10-16T11:06:30;17.00;72.80
4673;DHT22;61885;53.560;9.940;2022-10-16T11:09:09;17.10;70.90
4673;DHT22;61885;53.560;9.940;2022-10-16T11:11:45;16.90;56.60
4673;DHT22;61885;53.560;9.940;2022-10-16T11:14:19;16.90;59.30
4673;DHT22;61885;53.560;9.940;2022-10-16T11:16:52;17.50;46.70
4673;DHT22;61885;53.560;9.940;2022-10-16T11:19:34;17.00;40.10
4673;DHT22;61885;53.560;9.940;2022-10-16T11:22:11;17.00;42.90
4673;DHT22;61885;53.560;9.940;2022-10-16T11:24:45;17.10;34.20
4673;DHT22;61885;53.560;9.940;2022-10-16T11:27:21;17.20;29.40
4673;DHT22;61885;53.560;9.940;2022-10-16T11:29:56;17.20;28.30
4673;DHT22;61885;53.560;9.940;2022-10-16T11:32:30;17.20;28.40
4673;DHT22;61885;53.560;9.940;2022-10-16T11:35:08;17.30;30.00
4673;DHT22;61885;53.560;9.940;2022-10-16T11:37:43;17.60;23.00
4673;DHT22;61885;53.560;9.940;2022-10-16T11:40:22;17.30;23.10
4673;DHT22;61885;53.560;9.940;2022-10-16T11:43:02;17.40;24.40
4673;DHT22;61885;53.560;9.940;2022-10-16T11:45:39;17.30;23.60
4673;DHT22;61885;53.560;9.940;2022-10-16T11:48:18;17.30;26.60
4673;DHT22;61885;53.560;9.940;2022-10-16T11:50:53;17.40;27.40
4673;DHT22;61885;53.560;9.940;2022-10-16T11:53:44;17.40;25.00
4673;DHT22;61885;53.560;9.940;2022-10-16T11:56:16;18.50;26.80
4673;DHT22;61885;53.560;9.940;2022-10-16T11:58:54;17.40;24.80
4673;DHT22;61885;53.560;9.940;2022-10-16T12:01:30;17.20;22.00
4673;DHT22;61885;53.560;9.940;2022-10-16T12:04:18;17.10;22.00
4673;DHT22;61885;53.560;9.940;2022-10-16T12:06:52;17.10;23.50
4673;DHT22;61885;53.560;9.940;2022-10-16T12:09:26;16.90;23.20
4673;DHT22;61885;53.560;9.940;2022-10-16T12:11:57;16.80;23.10
4673;DHT22;61885;53.560;9.940;2022-10-16T12:14:37;17.00;21.90
4673;DHT22;61885;53.560;9.940;2022-10-16T12:17:25;16.80;20.10
4673;DHT22;61885;53.560;9.940;2022-10-16T12:19:59;17.00;20.90
4673;DHT22;61885;53.560;9.940;2022-10-16T12:22:31;17.00;18.00
4673;DHT22;61885;53.560;9.940;2022-10-16T12:25:01;17.00;17.90
4673;DHT22;61885;53.560;9.940;2022-10-16T12:27:32;17.00;17.60
4673;DHT22;61885;53.560;9.940;2022-10-16T12:30:06;17.30;14.70
4673;DHT22;61885;53.560;9.940;2022-10-16T12:32:37;17.60;12.40
4673;DHT22;61885;53.560;9.940;2022-10-16T12:35:18;17.80;9.00
4673;DHT22;61885;53.560;9.940;2022-10-16T12:37:48;17.70;5.70
4673;DHT22;61885;53.560;9.940;2022-10-16T12:40:26;17.90;5.40
4673;DHT22;61885;53.560;9.940;2022-10-16T12:42:57;18.00;3.10
4673;DHT22;61885;53.560;9.940;2022-10-16T12:45:33;19.70;1.00
4673;DHT22;61885;53.560;9.940;2022-10-16T12:48:18;18.40;1.00
4673;DHT22;61885;53.560;9.940;2022-10-16T12:50:48;17.90;1.00
4673;DHT22;61885;53.560;9.940;2022-10-16T12:53:20;17.90;1.00
4673;DHT22;61885;53.560;9.940;2022-10-16T12:56:01;18.20;1.00
4673;DHT22;61885;53.560;9.940;2022-10-16T12:58:50;18.40;1.00
4673;DHT22;61885;53.560;9.940;2022-10-16T13:01:36;18.20;1.00
4673;DHT22;61885;53.560;9.940;2022-10-16T13:04:26;18.20;1.00
4673;DHT22;61885;53.560;9.940;2022-10-16T13:07:12;18.10;1.00
4673;DHT22;61885;53.560;9.940;2022-10-16T13:09:53;18.10;1.00
4673;DHT22;61885;53.560;9.940;2022-10-16T13:12:42;19.90;1.00
4673;DHT22;61885;53.560;9.940;2022-10-16T13:15:27;18.40;1.00
4673;DHT22;61885;53.560;9.940;2022-10-16T13:18:13;18.20;1.00
4673;DHT22;61885;53.560;9.940;2022-10-16T13:21:04;18.70;1.00
4673;DHT22;61885;53.560;9.940;2022-10-16T13:23:40;18.20;1.00
4673;DHT22;61885;53.560;9.940;2022-10-16T13:26:19;18.20;1.00
4673;DHT22;61885;53.560;9.940;2022-10-16T13:28:52;18.40;1.00
4673;DHT22;61885;53.560;9.940;2022-10-16T13:31:23;18.50;1.00
4673;DHT22;61885;53.560;9.940;2022-10-16T13:33:57;18.20;1.00
4673;DHT22;61885;53.560;9.940;2022-10-16T13:36:29;19.00;1.00
4673;DHT22;61885;53.560;9.940;2022-10-16T13:39:01;18.60;1.00
4673;DHT22;61885;53.560;9.940;2022-10-16T13:41:36;18.60;1.00
4673;DHT22;61885;53.560;9.940;2022-10-16T13:44:14;18.50;1.00
4673;DHT22;61885;53.560;9.940;2022-10-16T13:46:44;18.40;1.00
4673;DHT22;61885;53.560;9.940;2022-10-16T13:49:17;18.50;1.00
4673;DHT22;61885;53.560;9.940;2022-10-16T13:51:55;18.30;1.00
4673;DHT22;61885;53.560;9.940;2022-10-16T13:54:26;18.40;1.00
4673;DHT22;61885;53.560;9.940;2022-10-16T13:57:04;19.60;1.00
4673;DHT22;61885;53.560;9.940;2022-10-16T13:59:35;18.60;1.00
4673;DHT22;61885;53.560;9.940;2022-10-16T14:02:15;18.90;1.00
4673;DHT22;61885;53.560;9.940;2022-10-16T14:04:51;18.90;1.00
4673;DHT22;61885;53.560;9.940;2022-10-16T14:07:24;18.90;1.00
4673;DHT22;61885;53.560;9.940;2022-10-16T14:09:55;19.00;1.00
4673;DHT22;61885;53.560;9.940;2022-10-16T14:12:25;18.80;1.00
4673;DHT22;61885;53.560;9.940;2022-10-16T14:14:55;18.80;1.00
4673;DHT22;61885;53.560;9.940;2022-10-16T14:17:28;18.70;1.00
4673;DHT22;61885;53.560;9.940;2022-10-16T14:20:04;18.70;1.00
4673;DHT22;61885;53.560;9.940;2022-10-16T14:22:35;18.50;1.00
4673;DHT22;61885;53.560;9.940;2022-10-16T14:25:21;18.70;1.00
4673;DHT22;61885;53.560;9.940;2022-10-16T14:27:58;18.90;1.00
4673;DHT22;61885;53.560;9.940;2022-10-16T14:30:29;18.70;1.00
4673;DHT22;61885;53.560;9.940;2022-10-16T14:33:01;18.80;1.00
4673;DHT22;61885;53.560;9.940;2022-10-16T14:35:35;18.90;1.00
4673;DHT22;61885;53.560;9.940;2022-10-16T14:38:06;19.00;1.00
4673;DHT22;61885;53.560;9.940;2022-10-16T14:40:47;18.80;1.00
4673;DHT22;61885;53.560;9.940;2022-10-16T14:43:22;18.70;1.00
4673;DHT22;61885;53.560;9.940;2022-10-16T14:45:54;18.80;1.00
4673;DHT22;61885;53.560;9.940;2022-10-16T14:48:25;18.70;1.00
4673;DHT22;61885;53.560;9.940;2022-10-16T14:50:57;18.60;1.00
4673;DHT22;61885;53.560;9.940;2022-10-16T14:53:27;18.90;1.00
4673;DHT22;61885;53.560;9.940;2022-10-16T14:55:56;19.30;1.00
4673;DHT22;61885;53.560;9.940;2022-10-16T14:58:26;19.10;1.00
4673;DHT22;61885;53.560;9.940;2022-10-16T15:00:56;18.80;1.00
4673;DHT22;61885;53.560;9.940;2022-10-16T15:03:25;20.10;1.00
4673;DHT22;61885;53.560;9.940;2022-10-16T15:05:57;18.70;1.00
4673;DHT22;61885;53.560;9.940;2022-10-16T15:08:27;18.60;1.00
4673;DHT22;61885;53.560;9.940;2022-10-16T15:10:57;18.50;1.00
4673;DHT22;61885;53.560;9.940;2022-10-16T15:13:26;18.60;1.00
4673;DHT22;61885;53.560;9.940;2022-10-16T15:15:56;18.70;1.00
4673;DHT22;61885;53.560;9.940;2022-10-16T15:18:25;19.00;1.00
4673;DHT22;61885;53.560;9.940;2022-10-16T15:20:58;21.00;1.00
4673;DHT22;61885;53.560;9.940;2022-10-16T15:23:27;19.70;1.00
4673;DHT22;61885;53.560;9.940;2022-10-16T15:25:57;19.60;1.00
4673;DHT22;61885;53.560;9.940;2022-10-16T15:28:26;19.30;1.00
4673;DHT22;61885;53.560;9.940;2022-10-16T15:30:57;19.30;1.00
4673;DHT22;61885;53.560;9.940;2022-10-16T15:33:27;19.30;1.00
4673;DHT22;61885;53.560;9.940;2022-10-16T15:36:03;19.10;1.00
4673;DHT22;61885;53.560;9.940;2022-10-16T15:38:33;19.20;1.00
4673;DHT22;61885;53.560;9.940;2022-10-16T15:41:03;18.70;1.00
4673;DHT22;61885;53.560;9.940;2022-10-16T15:43:32;18.80;1.00
4673;DHT22;61885;53.560;9.940;2022-10-16T15:46:03;18.00;1.00
4673;DHT22;61885;53.560;9.940;2022-10-16T15:48:35;17.90;1.00
4673;DHT22;61885;53.560;9.940;2022-10-16T15:51:08;19.20;1.00
4673;DHT22;61885;53.560;9.940;2022-10-16T15:53:38;17.30;1.00
4673;DHT22;61885;53.560;9.940;2022-10-16T15:56:09;18.70;1.00
4673;DHT22;61885;53.560;9.940;2022-10-16T15:58:40;17.20;1.00
4673;DHT22;61885;53.560;9.940;2022-10-16T16:01:10;16.80;1.00
4673;DHT22;61885;53.560;9.940;2022-10-16T16:03:39;16.90;1.00
4673;DHT22;61885;53.560;9.940;2022-10-16T16:06:14;17.90;1.00
4673;DHT22;61885;53.560;9.940;2022-10-16T16:08:43;16.70;1.00
4673;DHT22;61885;53.560;9.940;2022-10-16T16:11:16;16.50;1.00
4673;DHT22;61885;53.560;9.940;2022-10-16T16:13:46;16.50;1.00
4673;DHT22;61885;53.560;9.940;2022-10-16T16:16:16;16.30;1.00
4673;DHT22;61885;53.560;9.940;2022-10-16T16:18:46;16.30;2.00
4673;DHT22;61885;53.560;9.940;2022-10-16T16:21:18;16.20;2.40
4673;DHT22;61885;53.560;9.940;2022-10-16T16:23:48;16.30;2.50
4673;DHT22;61885;53.560;9.940;2022-10-16T16:26:23;16.30;3.90
4673;DHT22;61885;53.560;9.940;2022-10-16T16:28:54;16.10;5.50
4673;DHT22;61885;53.560;9.940;2022-10-16T16:31:24;16.00;5.40
4673;DHT22;61885;53.560;9.940;2022-10-16T16:33:54;16.60;5.70